Time;durP1;ratioP1;P1;durP2;ratioP2;P2;SDS_P1;SDS_P2;PMS_P1;PMS_P2;Temp;Humidity;BMP_temperature;BMP_pressure;BME280_temperature;BME280_humidity;BME280_pressure;Samples;Min_cycle;Max_cycle;Signal;HPM_P1;HPM_P2
2022/10/26 00:01:09;;;;;;;;;;;;;;;11.17;100.00;100290.12;4428231;32;35409;-80
2022/10/26 00:03:56;;;;;;;;;;;;;;;11.43;100.00;100286.94;4429920;32;35003;-81
2022/10/26 00:06:42;;;;;;;;;;;;;;;11.76;100.00;100287.75;4424696;32;34984;-81
2022/10/26 00:09:28;;;;;;;;;;;;;;;11.62;100.00;100286.91;4434796;32;34792;-80
2022/10/26 00:12:14;;;;;;;;;;;;;;;11.72;100.00;100292.19;4449911;32;33555;-81
2022/10/26 00:15:01;;;;;;;;;;;;;;;11.61;100.00;100288.84;4443518;32;35058;-80
2022/10/26 00:17:46;;;;;;;;;;;;;;;11.33;100.00;100292.62;4446566;32;35277;-81
2022/10/26 00:20:33;;;;;;;;;;;;;;;11.67;100.00;100286.81;4443392;32;36312;-81
2022/10/26 00:23:19;;;;;;;;;;;;;;;11.69;100.00;100290.88;4447121;32;33608;-80
2022/10/26 00:26:06;;;;;;;;;;;;;;;11.79;100.00;100291.81;4435949;32;34869;-81
2022/10/26 00:28:53;;;;;;;;;;;;;;;11.75;100.00;100294.34;4432458;32;34936;-81
2022/10/26 00:31:40;;;;;;;;;;;;;;;11.70;100.00;100294.44;4433436;32;34882;-80
2022/10/26 00:34:26;;;;;;;;;;;;;;;11.38;100.00;100301.56;4435094;32;34818;-81
2022/10/26 00:37:12;;;;;;;;;;;;;;;11.38;100.00;100295.25;4447369;32;34954;-81
2022/10/26 00:39:59;;;;;;;;;;;;;;;11.26;100.00;100299.28;4445144;32;34843;-80
2022/10/26 00:42:46;;;;;;;;;;;;;;;11.29;100.00;100297.06;4448932;32;35727;-81
2022/10/26 00:45:32;;;;;;;;;;;;;;;10.66;100.00;100288.13;4435938;32;33970;-81
2022/10/26 00:48:32;;;;;;;;;;;;;;;10.53;100.00;100291.59;4445878;32;35788;-81
2022/10/26 00:51:21;;;;;;;;;;;;;;;10.62;100.00;100283.56;4424237;32;34780;-81
2022/10/26 00:54:10;;;;;;;;;;;;;;;9.54;100.00;100281.25;4434438;32;34801;-81
2022/10/26 00:56:56;;;;;;;;;;;;;;;10.75;100.00;100283.63;4425974;32;34066;-81
2022/10/26 00:59:43;;;;;;;;;;;;;;;10.66;100.00;100281.84;4385120;32;1824824;-81
2022/10/26 01:02:30;;;;;;;;;;;;;;;10.60;100.00;100285.78;4437914;32;35210;-81
2022/10/26 01:05:17;;;;;;;;;;;;;;;10.86;100.00;100289.78;4447004;32;34856;-81
2022/10/26 01:08:04;;;;;;;;;;;;;;;11.11;100.00;100285.84;4431238;32;34047;-80
2022/10/26 01:10:50;;;;;;;;;;;;;;;11.32;100.00;100282.75;4436352;32;35645;-80
2022/10/26 01:13:36;;;;;;;;;;;;;;;11.18;100.00;100283.50;4440412;32;35382;-81
2022/10/26 01:16:35;;;;;;;;;;;;;;;10.17;100.00;100283.81;4436893;32;34449;-80
2022/10/26 01:19:30;;;;;;;;;;;;;;;10.72;100.00;100283.41;4433869;32;34065;-80
2022/10/26 01:22:20;;;;;;;;;;;;;;;11.16;100.00;100285.75;4433967;32;34899;-81
2022/10/26 01:25:13;;;;;;;;;;;;;;;10.97;100.00;100282.22;4445749;32;35279;-81
2022/10/26 01:27:59;;;;;;;;;;;;;;;9.85;100.00;100277.06;4445043;32;34933;-81
2022/10/26 01:30:47;;;;;;;;;;;;;;;10.20;100.00;100283.25;4434405;32;34948;-81
2022/10/26 01:33:34;;;;;;;;;;;;;;;10.31;100.00;100279.31;4446147;32;35871;-81
2022/10/26 01:36:33;;;;;;;;;;;;;;;9.94;100.00;100279.19;4446128;32;35845;-81
2022/10/26 01:39:24;;;;;;;;;;;;;;;10.35;100.00;100283.06;4435557;32;36067;-81
2022/10/26 01:42:10;;;;;;;;;;;;;;;9.41;100.00;100279.97;4436187;32;34764;-80
2022/10/26 01:44:58;;;;;;;;;;;;;;;10.17;100.00;100283.03;4423523;32;35769;-81
2022/10/26 01:47:44;;;;;;;;;;;;;;;10.71;100.00;100279.84;4431327;32;36167;-81
2022/10/26 01:50:31;;;;;;;;;;;;;;;10.75;100.00;100274.59;4425333;32;35373;-80
2022/10/26 01:53:17;;;;;;;;;;;;;;;10.71;100.00;100276.31;4432461;32;33988;-81
2022/10/26 01:56:04;;;;;;;;;;;;;;;10.95;100.00;100276.22;4435062;32;34552;-81
2022/10/26 01:59:08;;;;;;;;;;;;;;;11.08;100.00;100275.47;4436840;32;34704;-81
2022/10/26 02:02:25;;;;;;;;;;;;;;;11.07;100.00;100271.09;4447537;32;34822;-81
2022/10/26 02:05:30;;;;;;;;;;;;;;;11.15;100.00;100273.12;4446009;32;34934;-81
2022/10/26 02:08:27;;;;;;;;;;;;;;;10.76;100.00;100268.81;4447048;32;34912;-81
2022/10/26 02:11:18;;;;;;;;;;;;;;;11.07;100.00;100267.53;4428754;32;35130;-81
2022/10/26 02:14:10;;;;;;;;;;;;;;;10.95;100.00;100266.06;4440301;32;34736;-80
2022/10/26 02:17:01;;;;;;;;;;;;;;;11.01;100.00;100258.56;4427918;32;34708;-80
2022/10/26 02:20:09;;;;;;;;;;;;;;;10.83;100.00;100256.66;4435662;32;35022;-80
2022/10/26 02:22:55;;;;;;;;;;;;;;;11.28;100.00;100257.03;4446971;32;36090;-81
2022/10/26 02:25:44;;;;;;;;;;;;;;;11.11;99.11;100263.91;4438698;32;35602;-81
2022/10/26 02:28:35;;;;;;;;;;;;;;;10.57;100.00;100262.53;4434545;32;34596;-80
2022/10/26 02:31:21;;;;;;;;;;;;;;;10.78;100.00;100255.62;4429086;32;34262;-81
2022/10/26 02:34:10;;;;;;;;;;;;;;;10.75;100.00;100267.19;4433609;32;35183;-81
2022/10/26 02:36:57;;;;;;;;;;;;;;;10.76;100.00;100257.87;4438239;32;34788;-80
2022/10/26 02:39:43;;;;;;;;;;;;;;;10.92;100.00;100263.09;4425546;32;34617;-81
2022/10/26 02:42:29;;;;;;;;;;;;;;;11.05;100.00;100270.56;4436642;32;35244;-81
2022/10/26 02:48:11;;;;;;;;;;;;;;;10.89;100.00;100271.91;4441331;32;35599;-81
2022/10/26 02:51:02;;;;;;;;;;;;;;;11.07;100.00;100276.59;4437376;32;34112;-81
2022/10/26 02:53:53;;;;;;;;;;;;;;;10.69;100.00;100281.25;4435965;32;35729;-80
2022/10/26 02:56:48;;;;;;;;;;;;;;;10.61;100.00;100281.91;4439608;32;35205;-81
2022/10/26 02:59:35;;;;;;;;;;;;;;;10.80;100.00;100285.47;4437720;32;34629;-81
2022/10/26 03:02:21;;;;;;;;;;;;;;;10.88;100.00;100284.00;4436107;32;34142;-80
2022/10/26 03:05:12;;;;;;;;;;;;;;;10.96;100.00;100286.88;4436105;32;34561;-81
2022/10/26 03:07:59;;;;;;;;;;;;;;;11.16;100.00;100288.50;4435200;32;35173;-81
2022/10/26 03:10:45;;;;;;;;;;;;;;;11.18;100.00;100294.47;4435919;32;35662;-80
2022/10/26 03:13:32;;;;;;;;;;;;;;;11.28;100.00;100293.50;4432723;32;33815;-81
2022/10/26 03:16:18;;;;;;;;;;;;;;;10.88;100.00;100286.75;4457306;32;34908;-81
2022/10/26 03:19:05;;;;;;;;;;;;;;;10.76;100.00;100290.75;4435435;32;35239;-80
2022/10/26 03:21:52;;;;;;;;;;;;;;;10.61;100.00;100290.94;4445159;32;34890;-80
2022/10/26 03:24:39;;;;;;;;;;;;;;;10.96;100.00;100288.81;4446833;32;34517;-80
2022/10/26 03:27:26;;;;;;;;;;;;;;;11.12;100.00;100303.91;4441285;32;33839;-80
2022/10/26 03:30:14;;;;;;;;;;;;;;;10.81;100.00;100295.31;4443602;32;35101;-80
2022/10/26 03:33:02;;;;;;;;;;;;;;;10.91;100.00;100295.19;4452152;32;35071;-80
2022/10/26 03:35:55;;;;;;;;;;;;;;;11.25;100.00;100308.66;4460035;32;34888;-80
2022/10/26 03:38:43;;;;;;;;;;;;;;;11.42;100.00;100308.09;4436412;32;35876;-80
2022/10/26 03:41:30;;;;;;;;;;;;;;;11.15;100.00;100307.97;4447881;32;35235;-81
2022/10/26 03:44:16;;;;;;;;;;;;;;;10.39;100.00;100304.41;4428409;32;34828;-81
2022/10/26 03:47:03;;;;;;;;;;;;;;;11.02;100.00;100306.81;4422056;32;34083;-81
2022/10/26 03:49:49;;;;;;;;;;;;;;;11.11;100.00;100316.00;4441237;32;34334;-80
2022/10/26 03:52:35;;;;;;;;;;;;;;;10.97;100.00;100304.97;4449732;32;34936;-80
2022/10/26 03:55:25;;;;;;;;;;;;;;;10.92;100.00;100301.47;4442504;32;34774;-80
2022/10/26 03:58:17;;;;;;;;;;;;;;;10.96;100.00;100310.75;4453531;32;34063;-80
2022/10/26 04:01:04;;;;;;;;;;;;;;;10.98;100.00;100311.25;4434328;32;34538;-80
2022/10/26 04:03:50;;;;;;;;;;;;;;;10.88;100.00;100314.16;4454337;32;35286;-79
2022/10/26 04:06:36;;;;;;;;;;;;;;;10.84;100.00;100313.91;4438553;32;35604;-79
2022/10/26 04:09:29;;;;;;;;;;;;;;;10.68;100.00;100321.56;4443087;32;34673;-79
2022/10/26 04:12:20;;;;;;;;;;;;;;;10.62;100.00;100322.75;4445317;32;34861;-80
2022/10/26 04:15:07;;;;;;;;;;;;;;;10.90;100.00;100314.66;4445069;32;35256;-79
2022/10/26 04:17:58;;;;;;;;;;;;;;;11.10;100.00;100316.28;4435544;32;34462;-80
2022/10/26 04:20:44;;;;;;;;;;;;;;;11.12;100.00;100317.63;4432656;32;33703;-80
2022/10/26 04:23:36;;;;;;;;;;;;;;;11.14;100.00;100312.66;4451339;32;35773;-80
2022/10/26 04:26:22;;;;;;;;;;;;;;;11.26;100.00;100309.44;4438940;32;36161;-80
2022/10/26 04:29:12;;;;;;;;;;;;;;;11.31;100.00;100314.06;4450984;32;34587;-80
2022/10/26 04:32:01;;;;;;;;;;;;;;;11.16;100.00;100315.94;4444722;32;35041;-82
2022/10/26 04:34:53;;;;;;;;;;;;;;;11.11;100.00;100309.72;4436079;32;35896;-82
2022/10/26 04:37:40;;;;;;;;;;;;;;;11.11;100.00;100307.78;4449170;32;36088;-80
2022/10/26 04:40:27;;;;;;;;;;;;;;;11.26;100.00;100304.78;4432635;32;34794;-80
2022/10/26 04:43:14;;;;;;;;;;;;;;;11.19;100.00;100296.12;4458034;32;33852;-80
2022/10/26 04:46:01;;;;;;;;;;;;;;;11.30;100.00;100301.44;4437915;32;34525;-80
2022/10/26 04:48:48;;;;;;;;;;;;;;;11.30;100.00;100304.19;4435795;32;35277;-80
2022/10/26 04:51:36;;;;;;;;;;;;;;;11.39;100.00;100307.87;4449162;32;35602;-80
2022/10/26 04:54:26;;;;;;;;;;;;;;;11.12;100.00;100303.91;4436513;32;34941;-80
2022/10/26 04:57:23;;;;;;;;;;;;;;;11.36;100.00;100306.56;4449170;32;35748;-80
2022/10/26 05:00:17;;;;;;;;;;;;;;;11.38;100.00;100303.50;4448715;32;36144;-79
2022/10/26 05:03:05;;;;;;;;;;;;;;;11.50;100.00;100298.37;4454106;32;34397;-80
2022/10/26 05:05:53;;;;;;;;;;;;;;;11.40;100.00;100306.75;4437638;32;34085;-80
2022/10/26 05:08:41;;;;;;;;;;;;;;;11.29;100.00;100303.38;4440156;32;34839;-79
2022/10/26 05:11:28;;;;;;;;;;;;;;;11.49;100.00;100302.22;4433434;32;34879;-80
2022/10/26 05:14:15;;;;;;;;;;;;;;;11.52;100.00;100296.12;4438360;32;34372;-80
2022/10/26 05:17:02;;;;;;;;;;;;;;;11.58;100.00;100297.66;4434679;32;34671;-79
2022/10/26 05:19:54;;;;;;;;;;;;;;;11.35;100.00;100312.31;4433269;32;35110;-80
2022/10/26 05:25:45;;;;;;;;;;;;;;;10.96;100.00;100319.00;4438090;32;34778;-79
2022/10/26 05:28:34;;;;;;;;;;;;;;;11.17;100.00;100320.28;4437976;32;34069;-80
2022/10/26 05:31:22;;;;;;;;;;;;;;;10.87;100.00;100324.31;4451019;32;35031;-80
2022/10/26 05:34:11;;;;;;;;;;;;;;;10.73;100.00;100326.97;4464247;32;35999;-79
2022/10/26 05:37:03;;;;;;;;;;;;;;;10.75;100.00;100332.16;4454967;32;34612;-79
2022/10/26 05:39:50;;;;;;;;;;;;;;;10.83;100.00;100327.94;4455436;32;34784;-80
2022/10/26 05:42:36;;;;;;;;;;;;;;;11.10;100.00;100328.09;4424309;32;35014;-80
2022/10/26 05:45:22;;;;;;;;;;;;;;;11.42;100.00;100340.22;4435525;32;36171;-79
2022/10/26 05:48:11;;;;;;;;;;;;;;;11.35;100.00;100334.28;4450770;32;33462;-80
2022/10/26 05:51:05;;;;;;;;;;;;;;;11.29;100.00;100335.47;4428046;32;34142;-79
2022/10/26 05:53:53;;;;;;;;;;;;;;;11.43;100.00;100334.41;4448277;32;34991;-79
2022/10/26 05:56:41;;;;;;;;;;;;;;;11.54;100.00;100331.50;4450550;32;35984;-80
2022/10/26 05:59:37;;;;;;;;;;;;;;;11.68;100.00;100344.16;4446046;32;34448;-80
2022/10/26 06:02:29;;;;;;;;;;;;;;;11.78;100.00;100339.59;4450797;32;34900;-79
2022/10/26 06:05:22;;;;;;;;;;;;;;;11.83;100.00;100345.00;4423714;32;35820;-80
2022/10/26 06:08:16;;;;;;;;;;;;;;;10.47;100.00;100351.16;4413236;32;35209;-80
2022/10/26 06:11:08;;;;;;;;;;;;;;;11.36;100.00;100352.37;4441151;32;35197;-79
2022/10/26 06:13:59;;;;;;;;;;;;;;;11.31;100.00;100355.22;4421531;32;34855;-79
2022/10/26 06:17:03;;;;;;;;;;;;;;;11.54;100.00;100361.69;4450568;32;35836;-80
2022/10/26 06:20:09;;;;;;;;;;;;;;;11.58;100.00;100369.00;4436957;32;35182;-80
2022/10/26 06:23:09;;;;;;;;;;;;;;;11.81;100.00;100371.94;4434982;32;34828;-80
2022/10/26 06:26:21;;;;;;;;;;;;;;;11.69;100.00;100373.22;4424843;32;35072;-80
2022/10/26 06:29:11;;;;;;;;;;;;;;;11.48;100.00;100371.94;4429192;32;34536;-80
2022/10/26 06:31:57;;;;;;;;;;;;;;;11.15;100.00;100380.09;4431283;32;35157;-80
2022/10/26 06:34:45;;;;;;;;;;;;;;;11.67;100.00;100380.97;4444531;32;34846;-80
2022/10/26 06:37:34;;;;;;;;;;;;;;;11.54;100.00;100380.91;4431123;32;34765;-80
2022/10/26 06:40:21;;;;;;;;;;;;;;;11.06;100.00;100387.38;4431136;32;34401;-79
2022/10/26 06:43:24;;;;;;;;;;;;;;;11.75;100.00;100371.19;4423983;32;36430;-80
2022/10/26 06:46:16;;;;;;;;;;;;;;;11.38;100.00;100372.91;4425338;32;35632;-80
2022/10/26 06:49:03;;;;;;;;;;;;;;;11.83;100.00;100383.44;4423156;32;34177;-80
2022/10/26 06:52:06;;;;;;;;;;;;;;;11.68;100.00;100381.78;4425332;32;34698;-80
2022/10/26 06:54:59;;;;;;;;;;;;;;;11.84;100.00;100385.06;4411606;32;35591;-79
2022/10/26 06:57:46;;;;;;;;;;;;;;;12.04;100.00;100384.75;4411957;32;35910;-79
2022/10/26 07:00:41;;;;;;;;;;;;;;;11.88;100.00;100391.62;4416530;32;34002;-80
2022/10/26 07:03:28;;;;;;;;;;;;;;;12.33;100.00;100389.97;4427301;32;35821;-79
2022/10/26 07:06:17;;;;;;;;;;;;;;;12.23;100.00;100386.59;4431989;32;34514;-81
2022/10/26 07:09:05;;;;;;;;;;;;;;;12.45;100.00;100389.47;4429731;32;35083;-82
2022/10/26 07:11:52;;;;;;;;;;;;;;;12.31;100.00;100383.13;4431703;32;33806;-81
2022/10/26 07:14:41;;;;;;;;;;;;;;;11.57;100.00;100386.59;4431201;32;35516;-82
2022/10/26 07:17:29;;;;;;;;;;;;;;;11.71;100.00;100395.69;4414007;32;35267;-82
2022/10/26 07:20:18;;;;;;;;;;;;;;;12.21;100.00;100388.81;4416671;32;35523;-81
2022/10/26 07:23:06;;;;;;;;;;;;;;;12.65;100.00;100388.22;4420379;32;34890;-82
2022/10/26 07:25:57;;;;;;;;;;;;;;;13.08;100.00;100395.31;4416848;32;34415;-81
2022/10/26 07:28:46;;;;;;;;;;;;;;;13.14;100.00;100394.06;4420976;32;35800;-81
2022/10/26 07:31:33;;;;;;;;;;;;;;;13.41;100.00;100399.53;4426665;32;34841;-81
2022/10/26 07:34:20;;;;;;;;;;;;;;;13.56;100.00;100394.78;4426048;32;33427;-81
2022/10/26 07:37:16;;;;;;;;;;;;;;;13.35;100.00;100406.28;4417237;32;34866;-81
2022/10/26 07:40:06;;;;;;;;;;;;;;;13.88;100.00;100393.69;4423723;32;35237;-81
2022/10/26 07:42:57;;;;;;;;;;;;;;;13.82;100.00;100393.00;4423568;32;34449;-81
2022/10/26 07:45:44;;;;;;;;;;;;;;;13.65;100.00;100395.66;4433852;32;33482;-81
2022/10/26 07:48:31;;;;;;;;;;;;;;;13.95;100.00;100405.91;4419067;32;34850;-81
2022/10/26 07:51:19;;;;;;;;;;;;;;;14.13;100.00;100397.72;4423749;32;34518;-81
2022/10/26 07:54:07;;;;;;;;;;;;;;;14.27;100.00;100398.44;4436017;32;34772;-81
2022/10/26 07:56:54;;;;;;;;;;;;;;;14.16;100.00;100392.38;4436522;32;32806;-82
2022/10/26 07:59:42;;;;;;;;;;;;;;;14.20;100.00;100400.84;4436046;32;34905;-81
2022/10/26 08:02:32;;;;;;;;;;;;;;;14.71;100.00;100391.16;4437543;32;35552;-82
2022/10/26 08:05:20;;;;;;;;;;;;;;;14.33;100.00;100391.66;4427191;32;33037;-81
2022/10/26 08:08:09;;;;;;;;;;;;;;;14.71;100.00;100393.94;4435882;32;33370;-81
2022/10/26 08:10:56;;;;;;;;;;;;;;;14.77;100.00;100395.44;4424684;32;34266;-81
2022/10/26 08:13:44;;;;;;;;;;;;;;;14.54;100.00;100393.88;4416852;32;35718;-82
2022/10/26 08:16:33;;;;;;;;;;;;;;;14.82;100.00;100397.22;4429066;32;34901;-81
2022/10/26 08:19:24;;;;;;;;;;;;;;;14.70;100.00;100400.59;4422847;32;34062;-80
2022/10/26 08:22:14;;;;;;;;;;;;;;;14.74;100.00;100409.87;4424851;32;35325;-80
2022/10/26 08:25:01;;;;;;;;;;;;;;;15.03;100.00;100403.75;4436091;32;35194;-80
2022/10/26 08:27:48;;;;;;;;;;;;;;;15.19;100.00;100406.84;4434039;32;34276;-79
2022/10/26 08:30:36;;;;;;;;;;;;;;;15.35;100.00;100400.88;4405003;32;34935;-80
2022/10/26 08:33:33;;;;;;;;;;;;;;;15.05;100.00;100401.50;4420525;32;34594;-80
2022/10/26 08:36:24;;;;;;;;;;;;;;;14.53;100.00;100406.03;4436014;32;35656;-80
2022/10/26 08:39:13;;;;;;;;;;;;;;;14.50;100.00;100396.44;4427690;32;34875;-80
2022/10/26 08:42:16;;;;;;;;;;;;;;;15.30;100.00;100401.81;4427042;32;33776;-81
2022/10/26 08:45:22;;;;;;;;;;;;;;;15.57;100.00;100406.22;4425628;32;34583;-80
2022/10/26 08:48:19;;;;;;;;;;;;;;;15.28;100.00;100410.44;4426497;32;33694;-80
2022/10/26 08:51:06;;;;;;;;;;;;;;;15.66;100.00;100426.38;4424120;32;34214;-80
2022/10/26 08:53:53;;;;;;;;;;;;;;;15.91;100.00;100432.22;4420290;32;33857;-81
2022/10/26 08:56:41;;;;;;;;;;;;;;;15.89;100.00;100438.06;4416252;32;34299;-81
2022/10/26 08:59:37;;;;;;;;;;;;;;;14.78;100.00;100430.16;4425048;32;35171;-80
2022/10/26 09:02:34;;;;;;;;;;;;;;;14.63;100.00;100433.34;4412959;32;34202;-81
2022/10/26 09:05:31;;;;;;;;;;;;;;;14.62;100.00;100431.72;4435626;32;33581;-81
2022/10/26 09:08:31;;;;;;;;;;;;;;;14.49;100.00;100425.16;4419997;32;34355;-81
2022/10/26 09:11:41;;;;;;;;;;;;;;;13.75;100.00;100424.88;4427343;32;35175;-81
2022/10/26 09:14:46;;;;;;;;;;;;;;;14.85;100.00;100424.97;4434959;32;34807;-81
2022/10/26 09:17:46;;;;;;;;;;;;;;;15.27;100.00;100427.31;4433570;32;34067;-80
2022/10/26 09:20:43;;;;;;;;;;;;;;;15.81;100.00;100432.56;4426180;32;34894;-81
2022/10/26 09:23:49;;;;;;;;;;;;;;;15.22;100.00;100425.53;4425944;32;33345;-80
2022/10/26 09:26:39;;;;;;;;;;;;;;;15.76;100.00;100432.72;4435170;32;34338;-81
2022/10/26 09:29:27;;;;;;;;;;;;;;;15.50;100.00;100447.31;4424140;32;33531;-80
2022/10/26 09:32:21;;;;;;;;;;;;;;;16.27;100.00;100445.62;4425899;32;35555;-80
2022/10/26 09:35:14;;;;;;;;;;;;;;;16.64;100.00;100448.75;4433394;32;36387;-80
2022/10/26 09:38:05;;;;;;;;;;;;;;;16.76;100.00;100450.81;4434761;32;34808;-81
2022/10/26 09:40:57;;;;;;;;;;;;;;;15.51;100.00;100448.94;4421631;32;33499;-80
2022/10/26 09:43:46;;;;;;;;;;;;;;;15.70;100.00;100443.94;4420928;32;34525;-82
2022/10/26 09:46:40;;;;;;;;;;;;;;;16.46;100.00;100445.25;4422107;32;34978;-80
2022/10/26 09:49:49;;;;;;;;;;;;;;;16.26;100.00;100448.75;4428732;32;33484;-82
2022/10/26 09:52:36;;;;;;;;;;;;;;;16.91;100.00;100452.25;4429806;32;33447;-81
2022/10/26 09:55:30;;;;;;;;;;;;;;;16.95;100.00;100453.22;4433730;32;34474;-81
2022/10/26 09:58:25;;;;;;;;;;;;;;;15.76;100.00;100460.34;4423379;32;35247;-81
2022/10/26 10:01:20;;;;;;;;;;;;;;;15.83;100.00;100458.72;4434929;32;34729;-79
2022/10/26 10:04:19;;;;;;;;;;;;;;;14.89;100.00;100452.75;4433978;32;33515;-80
2022/10/26 10:07:07;;;;;;;;;;;;;;;14.61;100.00;100464.00;4425641;32;34605;-79
2022/10/26 10:13:17;;;;;;;;;;;;;;;15.97;100.00;100453.03;4433275;32;35780;-78
2022/10/26 10:19:19;;;;;;;;;;;;;;;16.74;100.00;100464.19;4435299;32;34933;-79
2022/10/26 10:22:11;;;;;;;;;;;;;;;17.16;100.00;100464.31;4427555;32;34567;-79
2022/10/26 10:24:59;;;;;;;;;;;;;;;17.29;99.66;100452.19;4426750;32;35090;-79
2022/10/26 10:27:48;;;;;;;;;;;;;;;17.22;99.87;100454.69;4416717;32;33482;-80
2022/10/26 10:30:35;;;;;;;;;;;;;;;16.14;100.00;100463.25;4425240;32;34334;-79
2022/10/26 10:33:33;;;;;;;;;;;;;;;15.20;100.00;100454.63;4434616;32;32889;-79
2022/10/26 10:36:20;;;;;;;;;;;;;;;15.83;100.00;100452.41;4424669;32;34241;-79
2022/10/26 10:39:29;;;;;;;;;;;;;;;15.70;100.00;100454.19;4435632;32;35753;-79
2022/10/26 10:42:17;;;;;;;;;;;;;;;16.66;100.00;100452.00;4435575;32;35656;-79
2022/10/26 10:45:04;;;;;;;;;;;;;;;16.67;100.00;100450.06;4427560;32;35637;-79
2022/10/26 10:48:05;;;;;;;;;;;;;;;17.30;100.00;100448.25;4405561;32;33616;-79
2022/10/26 10:51:03;;;;;;;;;;;;;;;17.59;99.08;100450.19;4435319;32;32328;-79
2022/10/26 10:53:58;;;;;;;;;;;;;;;16.64;100.00;100448.75;4424241;32;34299;-79
2022/10/26 10:57:17;;;;;;;;;;;;;;;17.11;100.00;100439.63;4428153;32;36112;-80
2022/10/26 11:00:05;;;;;;;;;;;;;;;17.51;100.00;100443.56;4426535;32;34448;-80
2022/10/26 11:02:52;;;;;;;;;;;;;;;17.95;97.98;100444.00;4435290;32;34165;-80
2022/10/26 11:05:57;;;;;;;;;;;;;;;17.90;98.50;100444.22;4419405;32;33203;-81
2022/10/26 11:08:49;;;;;;;;;;;;;;;17.76;99.17;100438.13;4434115;32;35052;-81
2022/10/26 11:11:37;;;;;;;;;;;;;;;18.15;96.46;100433.19;4412358;32;34254;-81
2022/10/26 11:14:32;;;;;;;;;;;;;;;17.61;98.73;100436.78;4430059;32;33553;-81
2022/10/26 11:17:21;;;;;;;;;;;;;;;15.80;100.00;100436.47;4423479;32;35288;-81
2022/10/26 11:20:15;;;;;;;;;;;;;;;16.67;100.00;100431.50;4422584;32;34746;-81
2022/10/26 11:23:02;;;;;;;;;;;;;;;16.57;100.00;100429.91;4421398;32;33289;-80
2022/10/26 11:26:13;;;;;;;;;;;;;;;17.14;100.00;100428.66;4417445;32;33655;-81
2022/10/26 11:29:12;;;;;;;;;;;;;;;17.67;100.00;100429.06;4433930;32;33429;-81
2022/10/26 11:32:01;;;;;;;;;;;;;;;17.47;100.00;100420.41;4431713;32;35040;-81
2022/10/26 11:34:57;;;;;;;;;;;;;;;17.58;100.00;100420.81;4420373;32;35160;-81
2022/10/26 11:38:00;;;;;;;;;;;;;;;17.92;97.45;100416.94;4421592;32;34208;-81
2022/10/26 11:40:52;;;;;;;;;;;;;;;18.14;97.57;100414.94;4421036;32;34253;-80
2022/10/26 11:43:41;;;;;;;;;;;;;;;16.60;100.00;100415.41;4408668;32;35075;-79
2022/10/26 11:46:41;;;;;;;;;;;;;;;18.02;100.00;100412.16;4419467;32;34533;-79
2022/10/26 11:49:46;;;;;;;;;;;;;;;17.99;99.94;100408.09;4430522;32;34691;-80
2022/10/26 11:52:35;;;;;;;;;;;;;;;17.38;100.00;100410.56;4429766;32;34530;-81
2022/10/26 11:55:28;;;;;;;;;;;;;;;17.33;100.00;100411.56;4421347;32;34978;-80
2022/10/26 11:58:18;;;;;;;;;;;;;;;17.08;100.00;100407.88;4409030;32;35538;-77
2022/10/26 12:01:09;;;;;;;;;;;;;;;17.53;100.00;100408.00;4422752;32;33990;-78
2022/10/26 12:03:56;;;;;;;;;;;;;;;16.88;100.00;100409.47;4430298;32;34614;-78
2022/10/26 12:06:43;;;;;;;;;;;;;;;17.12;100.00;100408.00;4420644;32;34964;-77
2022/10/26 12:09:30;;;;;;;;;;;;;;;16.86;100.00;100407.00;4421517;32;35304;-79
2022/10/26 12:12:35;;;;;;;;;;;;;;;16.97;100.00;100407.44;4419194;32;33601;-79
2022/10/26 12:15:33;;;;;;;;;;;;;;;17.20;100.00;100401.59;4430924;32;35320;-78
2022/10/26 12:18:52;;;;;;;;;;;;;;;18.60;98.21;100410.16;4415070;32;33857;-79
2022/10/26 12:21:43;;;;;;;;;;;;;;;18.30;98.29;100409.53;4422124;32;35698;-78
2022/10/26 12:24:38;;;;;;;;;;;;;;;17.61;100.00;100409.06;4415478;32;34727;-78
2022/10/26 12:27:29;;;;;;;;;;;;;;;18.56;98.02;100409.25;4419670;32;34206;-78
2022/10/26 12:30:16;;;;;;;;;;;;;;;18.46;97.27;100404.13;4424265;32;35167;-78
2022/10/26 12:33:27;;;;;;;;;;;;;;;18.33;99.55;100400.56;4431612;32;34895;-78
2022/10/26 12:36:20;;;;;;;;;;;;;;;19.47;90.54;100400.59;4422576;32;33506;-78
2022/10/26 12:39:24;;;;;;;;;;;;;;;19.79;88.04;100403.50;4430232;32;33276;-78
2022/10/26 12:45:19;;;;;;;;;;;;;;;19.42;90.64;100395.28;4428848;32;34484;-78
2022/10/26 12:48:26;;;;;;;;;;;;;;;19.88;89.80;100401.38;4420573;32;34543;-79
2022/10/26 12:51:25;;;;;;;;;;;;;;;19.88;88.04;100393.81;4429571;32;35484;-79
2022/10/26 12:54:33;;;;;;;;;;;;;;;19.21;92.42;100389.87;4422348;32;35216;-78
2022/10/26 12:57:23;;;;;;;;;;;;;;;19.98;87.22;100398.88;4422967;32;35060;-80
2022/10/26 13:00:15;;;;;;;;;;;;;;;19.42;90.64;100395.28;4420393;32;34110;-78
2022/10/26 13:03:13;;;;;;;;;;;;;;;18.96;94.04;100391.91;4416708;32;34585;-78
2022/10/26 13:06:23;;;;;;;;;;;;;;;19.40;91.34;100394.81;4421459;32;34624;-79
2022/10/26 13:09:15;;;;;;;;;;;;;;;19.56;90.07;100395.69;4430830;32;34494;-80
2022/10/26 13:12:05;;;;;;;;;;;;;;;19.73;87.32;100398.19;4414909;32;33352;-78
2022/10/26 13:15:03;;;;;;;;;;;;;;;18.56;94.38;100392.59;4429034;32;35006;-78
2022/10/26 13:18:09;;;;;;;;;;;;;;;19.63;89.86;100395.88;4428171;32;35840;-78
2022/10/26 13:21:07;;;;;;;;;;;;;;;19.30;92.31;100387.78;4418126;32;34857;-79
2022/10/26 13:24:07;;;;;;;;;;;;;;;19.49;91.69;100395.47;4418175;32;34009;-79
2022/10/26 13:30:03;;;;;;;;;;;;;;;19.57;90.39;100391.72;4429564;32;34571;-78
2022/10/26 13:32:55;;;;;;;;;;;;;;;18.68;93.22;100389.81;4431227;32;34613;-77
2022/10/26 13:35:42;;;;;;;;;;;;;;;18.99;92.34;100396.75;4442809;32;33853;-78
2022/10/26 13:38:32;;;;;;;;;;;;;;;18.94;93.03;100394.22;4444386;32;34876;-78
2022/10/26 13:41:24;;;;;;;;;;;;;;;19.70;89.51;100398.91;4432026;32;35141;-78
2022/10/26 13:44:16;;;;;;;;;;;;;;;19.94;87.66;100399.94;4425672;32;34762;-78
2022/10/26 13:47:15;;;;;;;;;;;;;;;20.03;87.32;100395.00;4433894;32;34146;-79
2022/10/26 13:50:04;;;;;;;;;;;;;;;19.91;88.74;100401.47;4427879;32;34923;-78
2022/10/26 13:52:52;;;;;;;;;;;;;;;19.93;89.12;100404.69;4426623;32;35964;-78
2022/10/26 13:55:53;;;;;;;;;;;;;;;19.84;89.18;100401.28;4434331;32;35261;-78
2022/10/26 13:58:48;;;;;;;;;;;;;;;20.12;87.95;100398.47;4434331;32;34527;-79
2022/10/26 14:01:40;;;;;;;;;;;;;;;20.00;88.95;100404.88;4431235;32;34908;-78
2022/10/26 14:04:29;;;;;;;;;;;;;;;20.19;87.45;100406.19;4420707;32;34727;-77
2022/10/26 14:07:24;;;;;;;;;;;;;;;20.12;87.73;100408.75;4446130;32;34520;-79
2022/10/26 14:10:23;;;;;;;;;;;;;;;20.10;88.26;100408.31;4420345;32;34078;-78
2022/10/26 14:13:12;;;;;;;;;;;;;;;20.09;88.41;100403.91;4428689;32;35819;-78
2022/10/26 14:16:09;;;;;;;;;;;;;;;19.85;89.70;100410.41;4430213;32;35187;-79
2022/10/26 14:19:04;;;;;;;;;;;;;;;19.47;92.85;100404.16;4437519;32;35675;-79
2022/10/26 14:21:53;;;;;;;;;;;;;;;19.15;94.81;100405.97;4440582;32;34983;-83
2022/10/26 14:27:44;;;;;;;;;;;;;;;19.13;93.94;100405.53;4435117;32;34860;-78
2022/10/26 14:30:37;;;;;;;;;;;;;;;19.24;93.20;100415.00;4449986;32;35691;-78
2022/10/26 14:33:28;;;;;;;;;;;;;;;18.69;97.37;100410.84;4425789;32;33502;-79
2022/10/26 14:36:16;;;;;;;;;;;;;;;19.21;93.97;100410.16;4451243;32;34927;-78
2022/10/26 14:39:18;;;;;;;;;;;;;;;19.18;94.37;100419.19;4436936;32;35268;-79
2022/10/26 14:42:24;;;;;;;;;;;;;;;19.58;92.38;100415.59;4425603;32;35155;-80
2022/10/26 14:45:29;;;;;;;;;;;;;;;19.90;91.37;100418.50;4448383;32;34019;-79
2022/10/26 14:48:35;;;;;;;;;;;;;;;19.26;92.97;100415.44;4432886;32;34957;-79
2022/10/26 14:51:26;;;;;;;;;;;;;;;19.70;90.94;100412.81;4425098;32;35190;-79
2022/10/26 14:54:21;;;;;;;;;;;;;;;19.54;91.62;100415.47;4422449;32;34823;-80